Rennes, France

4:04 AM CET on October 26, 2014 (GMT +0100)
Saint Jacques | Change Station
CLOSE
Current Station
Airport
Location: Rennes,
Elevation: 121 ft
Nearby Weather Stations

Elev 121 ft 48.07 °N, 1.73 °W | Updated 34 minutes ago

Overcast
Overcast
50 °F
Feels Like 50 °F
N
2
Wind Variable Wind from WNW

Today
High -- | Low -- °F
--% Chance of Precip.
Yesterday
High -- | Low -- °F
Precip. -- in
7:42 AM 5:58 PM
Waxing Crescent, 5% visible
Pressure 30.24 in
Visibility 4.3 miles
Clouds Mostly Cloudy 2800 ft
Mostly Cloudy 3400 ft
Overcast 4100 ft
Dew Point 48 °F
Humidity 94%
Rainfall 0.00 in
Snow Depth Not available.
UV 0 out of 12
Pollen Not available.
Air Quality Not available.
Flu Activity Not available.
METAR LFRN 260230Z AUTO 30002KT 7000 BKN028 BKN034 OVC041 10/09 Q1024

More Conditions Fewer Conditions

Pressure 30.24 in
Visibility 4.3 miles
Clouds Mostly Cloudy 2800 ft
Mostly Cloudy 3400 ft
Overcast 4100 ft
Dew Point 48 °F
Humidity 94%
Rainfall 0.00 in
Snow Depth Not available.
UV 0 out of 12
Pollen Not available.
Air Quality Not available.
Flu Activity Not available.
METAR LFRN 260230Z AUTO 30002KT 7000 BKN028 BKN034 OVC041 10/09 Q1024

More Conditions Fewer Conditions

10-Day Weather Forecast

Almanac

Astronomy

Oct. 26, 2014 Rise Set
Actual Time 7:42 AM CET 5:58 PM CET
Civil Twilight 7:10 AM CET 6:30 PM CET
Nautical Twilight 6:34 AM CET 7:06 PM CET
Astronomical Twilight 5:58 AM CET 7:42 PM CET
Moon 10:13 AM CET 7:49 PM CET
Length of Visible Light 11h 20m
Length of Day
10h 16m
Tomorrow will be 3m 14s shorter.
Waxing Crescent, 5% of the Moon is Illuminated
Oct 25
Waxing Crescent
Oct 30
First Quarter
Nov 6
Full
Nov 14
Last Quarter
Nov 22
New

Yesterday's Extremes

Country Highs Country Lows

Community

WunderPhotos

Upload Photos

1,765,091 photos uploaded!

Nearby

Snow Depth

Not available.

Earthquake Activity

City Distance Mag. Time & Date
No recent earthquake activity has been reported nearby.
Minimum magnitude displayed is 2.5.

Coastal Water Temperatures

Place Temperature
No Stations Reporting

Nearby Weather Stations